Time;durP1;ratioP1;P1;durP2;ratioP2;P2;SDS_P1;SDS_P2;PMS_P1;PMS_P2;Temp;Humidity;BMP_temperature;BMP_pressure;BME280_temperature;BME280_humidity;BME280_pressure;Samples;Min_cycle;Max_cycle;Signal;HPM_P1;HPM_P2
2022/04/22 00:01:15;;;;;;;19.00;13.30;;;;;;;9.52;66.08;99700.07;107611;1274;137810;-76
2022/04/22 00:03:47;;;;;;;17.60;13.20;;;;;;;9.51;66.18;99698.52;107668;1274;111306;-77
2022/04/22 00:06:19;;;;;;;18.70;12.40;;;;;;;9.51;66.23;99703.56;107533;1274;139388;-77
2022/04/22 00:08:51;;;;;;;16.70;11.80;;;;;;;9.52;66.25;99699.20;107686;1273;109046;-77
2022/04/22 00:11:32;;;;;;;21.10;12.00;;;;;;;9.53;66.24;99702.45;107634;1272;96171;-77
2022/04/22 00:14:11;;;;;;;17.40;12.00;;;;;;;9.58;66.26;99701.20;107611;1273;139559;-77
2022/04/22 00:16:44;;;;;;;21.00;12.60;;;;;;;9.59;66.18;99699.80;107704;1273;113539;-76
2022/04/22 00:19:16;;;;;;;19.00;12.50;;;;;;;9.60;66.13;99700.64;107509;1273;138576;-76
2022/04/22 00:21:48;;;;;;;17.70;12.70;;;;;;;9.61;66.22;99699.05;107671;1274;107728;-76
2022/04/22 00:24:20;;;;;;;20.30;13.70;;;;;;;9.63;66.17;99698.80;107586;1273;138044;-76
2022/04/22 00:26:52;;;;;;;21.20;13.60;;;;;;;9.62;66.15;99696.55;107676;1273;95882;-77
2022/04/22 00:29:24;;;;;;;21.20;13.50;;;;;;;9.62;66.14;99700.70;107584;1273;111031;-76
2022/04/22 00:31:56;;;;;;;22.70;14.10;;;;;;;9.61;66.11;99697.98;107220;1274;138545;-77
2022/04/22 00:34:28;;;;;;;19.40;13.10;;;;;;;9.59;66.14;99695.83;106160;1273;107866;-77
2022/04/22 00:37:00;;;;;;;21.00;12.40;;;;;;;9.58;66.16;99698.80;105977;1273;139028;-77
2022/04/22 00:39:32;;;;;;;20.00;12.70;;;;;;;9.59;66.27;99701.71;106073;1273;97807;-77
2022/04/22 00:42:11;;;;;;;19.30;12.40;;;;;;;9.61;66.35;99702.83;105988;1273;139499;-76
2022/04/22 00:44:43;;;;;;;19.20;13.40;;;;;;;9.65;66.38;99699.92;106949;1273;108972;-75
2022/04/22 00:47:15;;;;;;;18.60;13.30;;;;;;;9.69;66.43;99697.70;106097;1273;108454;-74
2022/04/22 00:49:47;;;;;;;21.40;13.30;;;;;;;9.72;66.36;99699.69;106121;1273;137914;-76
2022/04/22 00:52:20;;;;;;;20.80;14.20;;;;;;;9.73;66.47;99698.60;106182;1273;97861;-76
2022/04/22 00:54:52;;;;;;;18.30;13.60;;;;;;;9.77;66.56;99699.65;107569;1273;138537;-77
2022/04/22 00:57:24;;;;;;;18.30;13.60;;;;;;;9.78;66.53;99694.58;106124;1274;107940;-76
2022/04/22 00:59:57;;;;;;;21.60;13.30;;;;;;;9.79;66.59;99695.41;106013;1274;108974;-76
2022/04/22 01:02:28;;;;;;;19.70;13.60;;;;;;;9.80;66.54;99693.64;105851;1273;137783;-76
2022/04/22 01:10:39;;;;;;;16.20;11.50;;;;;;;9.72;66.68;99693.29;106102;1273;107374;-76
2022/04/22 01:13:12;;;;;;;20.20;12.20;;;;;;;9.68;66.80;99695.80;105965;1273;138523;-75
2022/04/22 01:15:45;;;;;;;18.20;12.30;;;;;;;9.68;66.97;99691.46;106148;1273;97881;-75
2022/04/22 01:18:18;;;;;;;17.40;12.50;;;;;;;9.68;66.95;99696.50;106041;1274;137900;-75
2022/04/22 01:20:51;;;;;;;17.10;11.60;;;;;;;9.67;66.92;99695.34;106195;1273;112141;-75
2022/04/22 01:23:23;;;;;;;16.50;11.70;;;;;;;9.63;66.97;99696.17;106593;1272;108859;-75
2022/04/22 01:25:56;;;;;;;16.40;11.40;;;;;;;9.61;66.98;99696.61;106063;1273;138033;-75
2022/04/22 01:28:28;;;;;;;17.80;12.30;;;;;;;9.58;67.14;99696.02;106444;1273;97835;-75
2022/04/22 01:31:00;;;;;;;16.50;11.80;;;;;;;9.58;67.20;99698.11;106044;1274;138048;-74
2022/04/22 01:33:33;;;;;;;17.50;11.30;;;;;;;9.55;67.29;99702.04;106144;1273;110753;-75
2022/04/22 01:36:08;;;;;;;15.20;10.90;;;;;;;9.52;67.30;99700.41;106076;1273;139389;-73
2022/04/22 01:38:40;;;;;;;17.20;10.30;;;;;;;9.51;67.44;99698.38;107670;1273;108907;-77
2022/04/22 01:41:12;;;;;;;17.80;9.30;;;;;;;9.49;67.51;99698.27;107580;1273;96224;-76
2022/04/22 01:43:44;;;;;;;15.00;10.30;;;;;;;9.49;67.56;99696.34;107395;1273;138015;-76
2022/04/22 01:46:16;;;;;;;15.40;9.60;;;;;;;9.51;67.76;99699.23;106208;1273;112032;-75
2022/04/22 01:48:48;;;;;;;15.70;9.70;;;;;;;9.53;67.98;99698.83;106020;1274;138756;-76
2022/04/22 01:51:20;;;;;;;13.20;9.50;;;;;;;9.50;68.11;99695.95;106179;1273;108808;-77
2022/04/22 01:53:52;;;;;;;14.00;9.10;;;;;;;9.42;68.44;99696.59;106167;1273;97822;-76
2022/04/22 01:56:24;;;;;;;18.50;9.30;;;;;;;9.34;68.63;99696.73;106014;1273;138515;-76
2022/04/22 01:58:57;;;;;;;13.40;9.40;;;;;;;9.30;68.83;99697.05;107660;1273;111133;-77
2022/04/22 02:01:30;;;;;;;12.00;9.00;;;;;;;9.26;68.97;99698.73;107467;1273;138637;-76
2022/04/22 02:04:02;;;;;;;12.20;9.20;;;;;;;9.25;69.10;99694.61;106080;1273;108876;-76
2022/04/22 02:06:34;;;;;;;14.40;9.40;;;;;;;9.25;69.28;99692.55;105933;1273;138593;-76
2022/04/22 02:09:06;;;;;;;14.10;8.90;;;;;;;9.26;69.49;99688.84;106019;1274;97871;-76
2022/04/22 02:11:40;;;;;;;11.70;9.00;;;;;;;9.27;69.50;99686.38;106112;1273;111497;-77
2022/04/22 02:14:12;;;;;;;11.50;8.70;;;;;;;9.28;69.56;99686.85;105966;1273;138352;-77
2022/04/22 02:16:44;;;;;;;10.40;8.10;;;;;;;9.29;69.51;99684.05;106166;1271;108915;-76
2022/04/22 02:19:16;;;;;;;11.80;8.30;;;;;;;9.29;69.54;99685.27;106014;1271;138998;-76
2022/04/22 02:21:49;;;;;;;10.00;7.60;;;;;;;9.29;69.58;99685.29;106095;1273;97828;-77
2022/04/22 02:24:21;;;;;;;12.10;8.00;;;;;;;9.30;69.69;99689.21;105868;1273;164717;-76
2022/04/22 02:29:43;;;;;;;9.60;6.90;;;;;;;9.31;69.77;99692.66;106065;1273;107825;-77
2022/04/22 02:32:15;;;;;;;10.40;7.70;;;;;;;9.30;69.97;99700.66;105969;1273;139563;-77
2022/04/22 02:34:47;;;;;;;10.10;5.90;;;;;;;9.29;70.17;99704.34;106095;1274;97835;-77
2022/04/22 02:37:19;;;;;;;7.80;5.90;;;;;;;9.24;70.23;99702.27;105948;1273;138435;-78
2022/04/22 02:39:51;;;;;;;8.30;5.50;;;;;;;9.20;70.27;99698.41;106173;1271;108920;-77
2022/04/22 02:45:28;;;;;;;7.20;5.40;;;;;;;9.08;70.70;99702.14;106047;1273;98226;-78
2022/04/22 02:48:00;;;;;;;10.10;6.20;;;;;;;9.02;71.07;99706.52;106146;1273;97928;-78
2022/04/22 02:50:32;;;;;;;8.20;5.70;;;;;;;8.95;71.11;99707.96;106045;1272;138407;-78
2022/04/22 02:53:04;;;;;;;6.70;4.80;;;;;;;8.90;71.55;99711.27;106155;1271;109078;-78
2022/04/22 02:55:40;;;;;;;7.00;5.00;;;;;;;8.81;71.61;99707.93;106000;1271;138879;-77
2022/04/22 02:58:12;;;;;;;5.70;4.30;;;;;;;8.75;71.70;99710.70;106040;1273;97848;-77
2022/04/22 03:00:45;;;;;;;5.20;4.00;;;;;;;8.70;72.04;99706.56;106498;1273;139119;-77
2022/04/22 03:03:17;;;;;;;5.70;3.90;;;;;;;8.63;72.02;99708.89;107784;1271;111569;-76
2022/04/22 03:05:49;;;;;;;5.00;3.50;;;;;;;8.57;72.53;99706.64;107121;1271;108891;-76
2022/04/22 03:08:21;;;;;;;4.20;3.30;;;;;;;8.45;72.65;99709.10;106063;1271;138345;-76
2022/04/22 03:10:53;;;;;;;6.20;3.50;;;;;;;8.36;73.02;99705.92;106205;1273;97737;-76
2022/04/22 03:13:25;;;;;;;4.10;3.30;;;;;;;8.27;73.25;99709.15;106132;1271;139342;-77
2022/04/22 03:15:59;;;;;;;5.20;3.10;;;;;;;8.19;73.39;99709.73;106703;1271;112116;-77
2022/04/22 03:18:31;;;;;;;4.00;3.00;;;;;;;8.10;73.69;99710.86;106302;1271;138405;-76
2022/04/22 03:21:04;;;;;;;4.00;2.70;;;;;;;8.03;73.44;99712.11;106108;1273;108977;-76
2022/04/22 03:23:36;;;;;;;3.40;2.90;;;;;;;8.02;74.03;99712.48;106160;1271;98534;-76
2022/04/22 03:26:09;;;;;;;3.20;2.60;;;;;;;7.98;74.37;99711.77;106026;1273;138571;-77
2022/04/22 03:28:41;;;;;;;4.20;3.10;;;;;;;7.92;74.52;99711.08;106082;1273;112504;-76
2022/04/22 03:31:13;;;;;;;5.60;3.30;;;;;;;7.90;74.26;99714.41;105937;1273;138285;-76
2022/04/22 03:33:45;;;;;;;3.90;3.30;;;;;;;7.91;74.47;99716.48;106188;1271;109151;-76
2022/04/22 03:36:17;;;;;;;3.90;3.10;;;;;;;7.93;74.68;99719.73;106009;1273;138653;-76
2022/04/22 03:38:53;;;;;;;3.20;2.90;;;;;;;7.95;74.55;99722.95;106079;1273;97824;-76
2022/04/22 03:41:25;;;;;;;3.70;3.00;;;;;;;7.94;75.01;99723.13;106074;1273;111552;-75
2022/04/22 03:43:59;;;;;;;4.20;2.90;;;;;;;7.94;74.85;99724.89;105971;1273;138336;-76
2022/04/22 03:46:31;;;;;;;3.10;2.80;;;;;;;7.93;74.78;99720.58;106139;1273;109005;-75
2022/04/22 03:49:04;;;;;;;3.20;2.60;;;;;;;7.93;75.05;99720.57;107439;1273;139193;-76
2022/04/22 03:51:37;;;;;;;3.60;2.50;;;;;;;7.89;74.83;99718.24;106491;1273;97723;-76
2022/04/22 03:54:08;;;;;;;3.30;2.90;;;;;;;7.88;75.06;99722.07;106034;1273;138463;-75
2022/04/22 03:59:30;;;;;;;2.90;2.60;;;;;;;7.86;75.19;99722.14;107633;1273;108044;-76
2022/04/22 04:02:02;;;;;;;4.00;2.70;;;;;;;7.83;75.33;99725.35;107162;1273;138788;-76
2022/04/22 04:04:34;;;;;;;3.10;2.60;;;;;;;7.79;76.18;99729.11;106126;1273;97867;-75
2022/04/22 04:07:07;;;;;;;3.80;2.60;;;;;;;7.74;75.76;99732.73;107619;1272;138265;-76
2022/04/22 04:18:08;;;;;;;2.80;2.50;;;;;;;7.67;75.76;99735.83;106971;1273;138390;-73
2022/04/22 04:23:29;;;;;;;2.90;2.60;;;;;;;7.67;75.86;99733.24;106112;1273;108897;-75
2022/04/22 04:26:01;;;;;;;3.00;2.70;;;;;;;7.71;75.99;99734.69;106064;1273;138346;-76
2022/04/22 04:28:33;;;;;;;3.00;2.40;;;;;;;7.73;75.90;99734.48;107741;1271;96918;-76
2022/04/22 04:31:06;;;;;;;3.10;2.60;;;;;;;7.76;76.09;99734.74;106836;1271;136667;-75
2022/04/22 04:33:39;;;;;;;4.80;3.00;;;;;;;7.75;76.21;99733.38;106167;1272;112540;-75
2022/04/22 04:36:12;;;;;;;3.60;3.10;;;;;;;7.74;75.89;99735.14;106127;1271;137950;-76
2022/04/22 04:38:44;;;;;;;3.80;3.30;;;;;;;7.76;75.61;99737.69;106316;1273;108719;-75
2022/04/22 04:41:16;;;;;;;4.30;2.80;;;;;;;7.76;75.74;99734.71;107010;1273;96558;-75
2022/04/22 04:43:48;;;;;;;3.50;3.20;;;;;;;7.77;75.63;99728.84;106023;1272;138156;-75
2022/04/22 04:46:20;;;;;;;3.30;3.00;;;;;;;7.80;75.58;99727.53;106130;1271;112695;-74
2022/04/22 04:48:54;;;;;;;4.50;3.40;;;;;;;7.82;75.31;99734.73;106044;1271;138195;-76
2022/04/22 04:51:26;;;;;;;6.00;3.30;;;;;;;7.92;75.13;99735.65;106102;1273;108078;-75
2022/04/22 04:53:58;;;;;;;4.60;3.50;;;;;;;8.16;74.90;99732.86;106106;1273;98287;-75
2022/04/22 04:56:30;;;;;;;5.50;3.90;;;;;;;8.83;74.29;99732.82;106017;1273;137168;-76
2022/04/22 04:59:02;;;;;;;5.40;4.80;;;;;;;9.05;72.61;99735.74;106152;1273;110328;-75
2022/04/22 05:01:34;;;;;;;4.20;3.60;;;;;;;9.11;72.32;99741.92;106049;1273;137625;-75
2022/04/22 05:04:06;;;;;;;5.50;4.70;;;;;;;9.25;72.06;99748.22;106129;1273;109234;-77
2022/04/22 05:06:38;;;;;;;5.30;3.90;;;;;;;9.73;71.48;99750.12;105883;1274;139726;-77
2022/04/22 05:09:10;;;;;;;5.40;3.90;;;;;;;10.81;70.54;99749.77;106175;1273;97815;-77
2022/04/22 05:11:42;;;;;;;5.50;4.50;;;;;;;11.29;67.55;99751.27;106206;1271;110576;-75
2022/04/22 05:14:14;;;;;;;5.80;4.90;;;;;;;11.22;66.95;99747.39;106033;1273;138078;-74
2022/04/22 05:16:46;;;;;;;6.00;5.40;;;;;;;11.09;66.47;99749.15;106121;1273;108429;-74
2022/04/22 05:19:21;;;;;;;6.80;5.60;;;;;;;10.85;65.97;99752.06;106044;1273;137777;-77
2022/04/22 05:21:55;;;;;;;8.50;6.30;;;;;;;10.54;65.81;99754.88;106233;1271;97855;-76
2022/04/22 05:24:27;;;;;;;6.90;6.20;;;;;;;10.19;65.90;99762.15;106078;1273;137938;-75
2022/04/22 05:27:00;;;;;;;8.70;7.20;;;;;;;9.87;66.55;99767.51;106119;1273;107911;-74
2022/04/22 05:32:42;;;;;;;7.90;7.10;;;;;;;9.34;67.43;99778.08;106041;1273;139424;-76
2022/04/22 05:35:16;;;;;;;8.30;7.50;;;;;;;9.10;67.61;99779.43;106234;1271;97855;-78
2022/04/22 05:37:49;;;;;;;11.20;8.30;;;;;;;8.88;67.61;99778.08;106052;1273;138135;-75
2022/04/22 05:40:23;;;;;;;9.20;7.80;;;;;;;8.69;67.64;99783.39;106136;1273;107765;-75
2022/04/22 05:42:56;;;;;;;9.80;8.50;;;;;;;8.51;68.24;99783.77;105967;1273;137644;-75
2022/04/22 05:45:29;;;;;;;13.00;8.90;;;;;;;8.38;68.62;99782.08;106138;1271;97938;-77
2022/04/22 05:48:01;;;;;;;10.60;8.70;;;;;;;8.28;68.73;99784.79;106216;1271;99094;-77
2022/04/22 05:50:33;;;;;;;10.90;8.90;;;;;;;8.20;68.93;99784.86;106027;1273;138142;-76
2022/04/22 05:53:05;;;;;;;9.30;8.30;;;;;;;8.18;69.05;99782.33;106165;1273;108269;-76
2022/04/22 05:55:38;;;;;;;12.20;9.10;;;;;;;8.19;69.15;99781.92;105964;1272;138520;-77
2022/04/22 05:58:10;;;;;;;11.90;9.80;;;;;;;8.23;69.24;99786.14;106160;1271;97845;-75
2022/04/22 06:00:42;;;;;;;10.10;8.50;;;;;;;8.27;69.04;99787.59;106152;1273;138420;-77
2022/04/22 06:03:14;;;;;;;11.60;8.60;;;;;;;8.27;68.79;99790.19;106052;1273;111483;-75
2022/04/22 06:05:46;;;;;;;11.30;8.70;;;;;;;8.31;68.74;99795.44;106062;1273;109103;-76
2022/04/22 06:11:07;;;;;;;10.20;8.30;;;;;;;8.41;68.33;99794.64;106211;1273;97888;-76
2022/04/22 06:13:39;;;;;;;9.80;7.80;;;;;;;8.56;68.45;99797.46;106130;1273;138377;-76
2022/04/22 06:16:15;;;;;;;;;;;;;;;8.94;67.81;99800.59;106169;1273;112789;-76
2022/04/22 06:18:47;;;;;;;9.90;8.80;;;;;;;9.03;67.30;99803.77;106129;1272;124275;-76
2022/04/22 06:21:19;;;;;;;9.60;8.10;;;;;;;9.13;67.14;99799.44;106195;1273;109910;-76
2022/04/22 06:23:51;;;;;;;11.10;8.40;;;;;;;9.29;66.30;99803.42;106206;1273;97805;-77
2022/04/22 06:26:23;;;;;;;9.20;7.80;;;;;;;9.42;66.04;99807.48;106055;1273;138399;-77
2022/04/22 06:28:55;;;;;;;9.60;7.30;;;;;;;9.85;65.94;99807.15;106227;1273;111116;-77
2022/04/22 06:31:29;;;;;;;9.60;7.00;;;;;;;10.71;64.42;99802.73;106075;1272;137826;-76
2022/04/22 06:34:01;;;;;;;7.70;7.00;;;;;;;11.17;63.31;99798.60;106118;1273;108792;-76
2022/04/22 06:36:35;;;;;;;9.50;6.90;;;;;;;11.39;62.96;99789.48;105985;1273;138062;-76
2022/04/22 06:39:09;;;;;;;7.70;6.50;;;;;;;11.50;62.25;99793.36;106212;1271;98265;-75
2022/04/22 06:47:23;;;;;;;7.40;5.90;;;;;;;13.54;58.35;99784.58;107723;1271;107617;-76
2022/04/22 06:49:56;;;;;;;6.90;5.40;;;;;;;15.12;57.80;99784.45;107409;1271;137755;-77
2022/04/22 06:52:29;;;;;;;5.90;5.00;;;;;;;17.66;52.36;99778.82;106624;1273;97986;-69
2022/04/22 06:55:01;;;;;;;9.60;4.60;;;;;;;19.13;47.81;99774.85;106148;1273;137564;-75
2022/04/22 06:57:35;;;;;;;4.80;4.40;;;;;;;19.66;45.45;99776.48;106195;1273;107759;-74
2022/04/22 07:00:10;;;;;;;6.90;4.70;;;;;;;19.10;44.19;99780.51;106198;1272;108814;-75
2022/04/22 07:02:44;;;;;;;5.50;4.40;;;;;;;19.58;41.38;99776.42;107366;1273;138358;-76
2022/04/22 07:05:17;;;;;;;4.70;4.20;;;;;;;19.78;42.17;99776.25;106279;1273;97898;-76
2022/04/22 07:07:50;;;;;;;6.30;4.10;;;;;;;19.47;41.09;99773.33;107205;1271;138905;-75
2022/04/22 07:10:24;;;;;;;4.70;3.80;;;;;;;20.33;41.94;99767.70;106316;1273;108601;-76
2022/04/22 07:12:59;;;;;;;4.30;3.90;;;;;;;21.80;40.11;99764.09;106379;1273;138202;-71
2022/04/22 07:15:32;;;;;;;4.70;3.90;;;;;;;22.70;37.17;99761.23;107740;1271;96477;-77
2022/04/22 07:18:05;;;;;;;4.20;3.40;;;;;;;21.78;35.43;99764.83;106965;1273;97822;-73
2022/04/22 07:20:39;;;;;;;5.30;3.80;;;;;;;20.19;36.93;99766.07;107612;1271;137763;-75
2022/04/22 07:23:13;;;;;;;5.60;4.50;;;;;;;18.76;37.42;99769.47;107757;1273;107678;-76
2022/04/22 07:25:48;;;;;;;4.80;4.30;;;;;;;17.36;38.44;99774.11;107555;1271;138822;-76
2022/04/22 07:28:21;;;;;;;4.90;4.40;;;;;;;16.04;39.92;99775.95;106655;1273;97957;-77
2022/04/22 07:30:53;;;;;;;5.40;4.80;;;;;;;15.11;42.07;99787.19;106045;1273;137817;-78
2022/04/22 07:33:26;;;;;;;7.70;4.60;;;;;;;15.47;44.39;99783.45;106140;1273;111297;-79
2022/04/22 07:35:59;;;;;;;5.30;4.60;;;;;;;15.93;44.14;99776.32;106147;1273;107581;-76
2022/04/22 07:38:32;;;;;;;5.10;4.60;;;;;;;15.62;44.15;99780.15;105886;1273;137924;-77
2022/04/22 07:41:07;;;;;;;7.60;5.20;;;;;;;15.23;44.81;99788.41;107671;1273;96289;-77
2022/04/22 07:46:51;;;;;;;5.70;5.10;;;;;;;14.46;45.31;99788.05;106112;1274;111105;-76
2022/04/22 07:49:23;;;;;;;6.00;5.40;;;;;;;14.39;45.27;99783.89;107165;1273;137598;-76
2022/04/22 07:51:55;;;;;;;6.50;4.90;;;;;;;14.86;46.26;99781.56;106596;1273;108251;-78
2022/04/22 07:54:30;;;;;;;8.90;5.00;;;;;;;16.13;44.71;99780.65;105926;1273;137965;-78
2022/04/22 07:57:03;;;;;;;10.90;4.90;;;;;;;17.94;43.10;99778.33;106180;1273;97819;-77
2022/04/22 07:59:35;;;;;;;7.90;4.20;;;;;;;19.09;38.82;99788.77;107676;1273;112379;-77
2022/04/22 08:02:09;;;;;;;6.20;4.50;;;;;;;19.23;38.95;99790.34;107405;1271;138134;-77
2022/04/22 08:04:41;;;;;;;4.70;4.30;;;;;;;18.64;39.30;99795.91;106527;1271;109325;-77
2022/04/22 08:07:15;;;;;;;5.30;4.50;;;;;;;17.76;39.64;99800.23;107065;1271;137848;-77
2022/04/22 08:09:54;;;;;;;6.50;4.80;;;;;;;16.84;40.29;99809.18;106238;1271;97931;-77
2022/04/22 08:12:26;;;;;;;4.90;4.40;;;;;;;16.05;41.68;99812.23;106158;1271;138835;-78
2022/04/22 08:15:03;;;;;;;6.90;5.30;;;;;;;15.47;42.37;99813.06;106186;1271;107771;-76
2022/04/22 08:17:37;;;;;;;6.60;5.10;;;;;;;14.87;43.22;99821.77;106479;1273;108119;-75
2022/04/22 08:20:11;;;;;;;5.10;4.60;;;;;;;14.43;44.31;99819.88;106658;1271;137652;-76
2022/04/22 08:22:44;;;;;;;11.30;5.10;;;;;;;14.05;44.84;99822.80;107788;1271;96076;-76
2022/04/22 08:25:16;;;;;;;5.20;4.70;;;;;;;13.83;45.78;99825.02;107415;1271;138338;-76
2022/04/22 08:27:50;;;;;;;6.30;5.30;;;;;;;13.76;45.79;99823.27;107820;1271;109164;-76
2022/04/22 08:30:22;;;;;;;7.40;5.20;;;;;;;13.55;46.18;99822.63;107498;1271;138196;-78
2022/04/22 08:32:54;;;;;;;6.10;5.40;;;;;;;13.32;46.53;99826.92;107324;1271;97799;-77
2022/04/22 08:35:26;;;;;;;6.90;5.50;;;;;;;13.11;47.08;99824.81;107809;1271;96968;-76
2022/04/22 08:38:00;;;;;;;6.30;5.60;;;;;;;12.86;47.28;99832.12;107705;1271;138945;-76
2022/04/22 08:40:32;;;;;;;6.40;5.50;;;;;;;12.62;47.64;99836.43;107842;1271;108915;-76
2022/04/22 08:43:06;;;;;;;7.00;6.10;;;;;;;12.77;48.12;99831.17;106929;1271;137815;-76
2022/04/22 08:45:38;;;;;;;7.40;6.20;;;;;;;13.20;47.97;99823.84;107812;1271;96145;-76
2022/04/22 08:51:02;;;;;;;6.10;5.50;;;;;;;13.65;46.91;99811.44;107613;1271;137903;-76
2022/04/22 08:53:35;;;;;;;5.60;4.80;;;;;;;14.46;46.80;99812.88;107803;1270;109244;-77
2022/04/22 08:56:09;;;;;;;7.00;5.10;;;;;;;14.76;44.98;99817.36;107589;1272;138739;-76
2022/04/22 08:58:42;;;;;;;6.20;5.00;;;;;;;14.62;45.38;99815.35;107570;1273;96068;-75
2022/04/22 09:01:14;;;;;;;5.70;5.10;;;;;;;14.81;45.40;99813.95;107498;1273;137683;-74
2022/04/22 09:03:47;;;;;;;5.50;5.00;;;;;;;15.03;44.64;99811.80;107442;1273;112115;-75
2022/04/22 09:06:21;;;;;;;6.20;4.60;;;;;;;15.12;44.22;99817.04;106604;1271;108202;-76
2022/04/22 09:08:55;;;;;;;7.40;4.40;;;;;;;15.28;43.58;99816.69;107601;1272;138142;-76
2022/04/22 09:11:30;;;;;;;7.30;4.80;;;;;;;15.13;42.48;99818.02;107184;1273;97857;-76
2022/04/22 09:14:04;;;;;;;5.90;5.30;;;;;;;14.82;43.36;99820.50;107644;1271;138082;-76
2022/04/22 09:16:38;;;;;;;5.80;5.00;;;;;;;14.77;44.27;99823.41;106679;1273;111451;-75
2022/04/22 09:19:10;;;;;;;5.40;4.70;;;;;;;15.04;44.67;99820.45;106926;1271;138909;-74
2022/04/22 09:21:42;;;;;;;5.20;4.60;;;;;;;16.02;43.97;99816.11;107781;1271;108819;-75
2022/04/22 09:24:16;;;;;;;6.10;4.90;;;;;;;16.55;43.12;99820.30;107752;1271;96151;-75
2022/04/22 09:27:03;;;;;;;5.20;4.70;;;;;;;16.49;41.51;99824.06;107674;1272;137772;-76
2022/04/22 09:29:44;;;;;;;6.10;5.10;;;;;;;16.00;41.16;99826.05;107535;1274;112254;-76
2022/04/22 09:32:23;;;;;;;6.30;4.50;;;;;;;15.89;42.27;99827.41;107640;1273;137658;-75
2022/04/22 09:34:59;;;;;;;5.30;4.80;;;;;;;16.39;42.29;99824.31;107675;1273;108953;-75
2022/04/22 09:43:14;;;;;;;6.10;4.60;;;;;;;15.78;41.27;99840.16;107466;1273;137600;-75
2022/04/22 09:45:47;;;;;;;5.10;4.60;;;;;;;15.41;41.40;99842.33;107143;1273;108824;-74
2022/04/22 09:48:20;;;;;;;5.70;4.80;;;;;;;15.36;42.08;99839.46;107569;1274;107385;-74
2022/04/22 09:50:54;;;;;;;5.40;4.90;;;;;;;15.27;42.14;99836.18;106893;1273;139369;-75
2022/04/22 09:53:34;;;;;;;6.40;5.00;;;;;;;14.98;41.83;99834.83;106141;1273;97829;-76
2022/04/22 09:56:10;;;;;;;5.80;4.90;;;;;;;14.61;42.08;99831.52;107245;1274;138570;-76
2022/04/22 09:58:42;;;;;;;6.40;5.80;;;;;;;14.38;42.79;99830.30;107633;1272;108563;-76
2022/04/22 10:01:14;;;;;;;6.90;5.30;;;;;;;14.44;43.78;99834.17;107429;1273;138562;-75
2022/04/22 10:03:47;;;;;;;5.80;5.30;;;;;;;14.67;43.71;99839.39;106656;1272;97947;-75
2022/04/22 10:06:20;;;;;;;5.80;5.30;;;;;;;14.62;43.19;99836.70;107652;1273;96381;-77
2022/04/22 10:08:56;;;;;;;6.40;5.50;;;;;;;14.42;42.79;99839.88;107534;1273;137889;-77
2022/04/22 10:11:29;;;;;;;5.80;5.20;;;;;;;14.24;43.28;99835.44;107616;1274;108724;-77
2022/04/22 10:14:05;;;;;;;5.20;4.70;;;;;;;14.37;44.10;99839.63;107046;1272;137641;-77
2022/04/22 10:16:37;;;;;;;5.20;4.70;;;;;;;14.96;43.56;99846.66;107137;1273;95918;-75
2022/04/22 10:19:11;;;;;;;4.90;4.40;;;;;;;15.18;42.35;99842.29;106991;1273;138896;-76
2022/04/22 10:21:44;;;;;;;5.60;4.10;;;;;;;15.27;42.68;99838.45;106132;1273;112457;-76
2022/04/22 10:24:17;;;;;;;5.80;4.30;;;;;;;15.32;41.83;99837.27;107189;1273;108866;-77
2022/04/22 10:26:50;;;;;;;8.20;4.70;;;;;;;15.44;42.00;99838.50;106321;1273;139801;-77
2022/04/22 10:29:22;;;;;;;7.50;4.80;;;;;;;15.82;42.03;99834.31;106121;1273;97847;-77
2022/04/22 10:31:56;;;;;;;4.80;4.20;;;;;;;16.31;41.90;99828.16;106149;1275;139651;-76
2022/04/22 10:34:41;;;;;;;4.80;4.40;;;;;;;17.16;41.50;99830.41;106474;1273;112237;-77
2022/04/22 10:37:20;;;;;;;4.30;3.90;;;;;;;17.63;39.87;99840.50;107398;1274;138472;-77
2022/04/22 10:39:55;;;;;;;4.80;4.30;;;;;;;17.46;39.47;99831.41;106337;1273;105587;-76
2022/04/22 10:42:35;;;;;;;4.50;3.80;;;;;;;17.20;39.01;99829.98;106371;1271;97831;-76
2022/04/22 10:48:25;;;;;;;5.30;4.50;;;;;;;16.18;39.11;99832.09;106360;1273;112722;-77
2022/04/22 10:50:59;;;;;;;4.80;4.30;;;;;;;15.85;39.49;99832.93;106362;1271;138534;-77
2022/04/22 10:53:33;;;;;;;4.30;3.90;;;;;;;15.53;39.77;99837.10;107755;1273;108381;-76
2022/04/22 10:56:36;;;;;;;4.30;3.80;;;;;;;15.29;40.10;99839.34;106834;1271;138163;-77
2022/04/22 10:59:32;;;;;;;4.20;3.80;;;;;;;15.13;39.87;99842.20;106244;1271;97685;-78
2022/04/22 11:02:31;;;;;;;5.90;4.20;;;;;;;14.85;39.69;99834.68;107585;1271;138250;-76
2022/04/22 11:05:46;;;;;;;4.40;4.00;;;;;;;14.74;40.41;99826.75;107278;1271;108905;-76
2022/04/22 11:08:29;;;;;;;4.20;3.80;;;;;;;14.79;40.09;99827.33;107564;1271;138809;-75
2022/04/22 11:11:10;;;;;;;4.60;4.20;;;;;;;14.76;40.06;99824.39;106469;1271;98796;-76
2022/04/22 11:13:44;;;;;;;5.60;3.70;;;;;;;14.61;40.02;99819.98;106153;1271;138288;-76
2022/04/22 11:16:24;;;;;;;7.90;3.90;;;;;;;14.56;40.62;99821.31;107613;1271;112273;-76
2022/04/22 11:19:25;;;;;;;4.30;3.50;;;;;;;14.63;40.77;99822.44;107782;1272;107081;-81
2022/04/22 11:22:01;;;;;;;4.70;3.90;;;;;;;14.87;40.67;99823.40;107716;1273;107869;-77
2022/04/22 11:24:34;;;;;;;4.90;3.60;;;;;;;14.86;40.45;99825.02;106976;1273;97862;-77
2022/04/22 11:27:11;;;;;;;4.20;3.80;;;;;;;14.80;40.38;99825.52;107190;1273;137469;-73
2022/04/22 11:29:44;;;;;;;4.10;3.80;;;;;;;14.83;40.19;99827.98;106555;1271;112661;-75
2022/04/22 11:32:21;;;;;;;5.60;4.10;;;;;;;14.70;40.18;99825.38;107400;1270;138323;-76
2022/04/22 11:35:10;;;;;;;5.30;4.70;;;;;;;14.63;40.88;99833.13;107762;1271;109019;-76
2022/04/22 11:37:43;;;;;;;4.20;3.80;;;;;;;14.61;41.08;99831.00;107663;1271;140077;-77
2022/04/22 11:40:21;;;;;;;4.70;4.10;;;;;;;14.57;41.66;99832.11;107782;1272;95724;-77
2022/04/22 11:42:54;;;;;;;4.50;4.00;;;;;;;14.51;41.29;99836.08;107817;1271;111972;-77
2022/04/22 11:45:28;;;;;;;4.40;4.00;;;;;;;14.30;41.03;99830.38;107585;1271;138512;-77
2022/04/22 11:48:08;;;;;;;5.00;4.50;;;;;;;14.02;40.82;99826.11;107773;1271;106850;-77
2022/04/22 11:50:42;;;;;;;6.60;4.70;;;;;;;13.74;41.24;99825.99;107643;1271;137736;-76
2022/04/22 11:53:17;;;;;;;4.90;4.50;;;;;;;13.48;41.72;99824.35;107742;1271;96039;-75
2022/04/22 11:55:50;;;;;;;11.00;4.70;;;;;;;13.36;42.64;99819.42;107647;1271;137708;-76
2022/04/22 11:58:24;;;;;;;6.00;4.50;;;;;;;13.26;42.63;99819.17;107749;1272;108918;-76
2022/04/22 12:06:44;;;;;;;12.10;5.00;;;;;;;13.03;43.14;99810.20;107494;1271;96257;-76
2022/04/22 12:09:17;;;;;;;5.30;4.60;;;;;;;12.91;43.67;99810.60;106302;1273;137759;-77
2022/04/22 12:11:52;;;;;;;6.00;5.40;;;;;;;12.85;43.69;99804.43;106426;1271;108189;-76
2022/04/22 12:14:30;;;;;;;5.90;5.20;;;;;;;12.79;44.11;99798.30;107138;1271;138794;-76
2022/04/22 12:17:04;;;;;;;7.50;5.00;;;;;;;12.84;44.48;99791.23;107721;1273;96001;-75
2022/04/22 12:19:36;;;;;;;7.40;5.00;;;;;;;13.16;44.84;99786.34;107651;1273;138776;-76
2022/04/22 12:22:10;;;;;;;5.90;4.60;;;;;;;13.58;44.76;99783.33;107817;1271;112316;-79
2022/04/22 12:25:02;;;;;;;6.90;4.90;;;;;;;14.03;43.99;99775.21;107690;1273;107605;-77
2022/04/22 12:27:34;;;;;;;5.80;4.80;;;;;;;14.46;43.71;99771.77;107615;1271;138689;-76
2022/04/22 12:30:09;;;;;;;5.60;4.80;;;;;;;14.57;42.68;99772.98;107447;1272;96359;-76
2022/04/22 12:32:43;;;;;;;5.70;4.20;;;;;;;14.51;42.80;99772.55;107649;1273;138298;-77
2022/04/22 12:35:17;;;;;;;7.10;4.30;;;;;;;14.41;42.44;99763.67;107706;1271;112400;-75
2022/04/22 12:37:57;;;;;;;5.00;4.20;;;;;;;14.24;42.30;99770.38;106517;1273;138552;-77
2022/04/22 12:40:29;;;;;;;4.80;3.90;;;;;;;14.07;42.23;99766.91;106397;1271;109191;-75
2022/04/22 12:43:27;;;;;;;4.50;4.10;;;;;;;13.93;41.71;99765.78;106267;1271;97902;-77
2022/04/22 12:52:16;;;;;;;5.30;4.20;;;;;;;13.41;41.27;99769.58;107181;1271;138128;-79
2022/04/22 12:54:49;;;;;;;6.30;4.30;;;;;;;13.19;42.32;99772.23;106291;1271;106694;-79